Arbuckle, California
Current Conditions -  °F | °C
As of 11:32 PM on Saturday 22 Nov 2014 (Local Time) from KMYV Reporting Station
Haze Haze  
Wind Chill: 11°   Ceiling: 200
Heat Index: 11°   Visibility: 0.75mi
Dew Point: 10°   Wind: 3mph
Humidity: 96%   Direction: 280°W
Pressure: 30.28"   Gusts: NA
Location:  39.02°N, 122.06°W
Report Text: KMYV 230732Z AUTO 28003KT 3/4SM BR OVC002 11/10 A3028 RMK AO2 T01060100
Loading
Personal Weather Stations






























Interactive Weather Map New forecast layout! Learn more

10-Day Weather Forecast

Advertisements
Track Severe Weather on mobile